Airfield :
LOGIN :

Register | Disclaimer

   EN    FR    IT 

 










Legend :    VFR   Marginal VFR   IFR   Intensive IFR   Very Intensive IFR
Visi :
Ceiling :
>= 8 km
>= 3000ft
5 to 8 km
1000 to 3000 ft
1500m to 5 km
500 to 1000 ft
800 to 1500m
200 to 500 ft
< 800m
< 200 ft
Symbols :   Thunderstorms  Fog  Heavy snow  Heavy precipitations  Wind > 20 kt
SIGMETs :     Misc.  Thunderstorms  Icing  Turbulence  Mountain Waves  Volcanic Ashes







- Airport Elevation : 13 ft
- IATA code : GOA


LIMJ - Genoa Cristoforo Colombo

CURRENT METAR :
  • 230650Z 02003KT 350V070 9999 FEW020 BKN035 18/13 Q1013

EXPIRED METARs :
  • 230620Z 03006KT 340V060 9999 FEW020 BKN035 18/13 Q1012
  • 230550Z 05005KT 020V080 9999 FEW025 BKN035 17/13 Q1012
  • 230520Z 05010KT 9999 FEW025 BKN035 17/13 Q1012
  • 230450Z 04010KT 010V080 9999 FEW015 SCT037 17/13 Q1012
  • 230420Z 06008KT 9999 -RA FEW015 SCT030 16/13 Q1012

TAF TAF LIMJ
Valid from the 23 at 06:00 until the 24 at 06:00 UTC


230500Z 2306/2406 05008KT 9999 SCT015 BKN035
PROB40
TEMPO 2306/2309 4000 SHRA
No reported NOTAMs for that airfield.



MET'MAP, your aeronautical weather chart ! - Copyright ORBIFLY December 2007 - Disclaimer

ORBIFLY MET'MAP TEAM :

Programming & Development : Alexandra Zaïnal
Concept & Development : Baudouin d'Aumeries
Co-Development & Prog : Marc-Olivier Méhu
Technical & hardware support : Manuel Goepfert

Contact : metmap@orbifly.com




SOURCES & CREDITS :

   NOAA